Date,TemperatureHighF,TemperatureAvgF,TemperatureLowF,DewpointHighF,DewpointAvgF,DewpointLowF,HumidityHigh,HumidityAvg,HumidityLow,PressureMaxIn,PressureMinIn,WindSpeedMaxMPH,WindSpeedAvgMPH,GustSpeedMaxMPH,PrecipitationSumIn
2013-5-1,82.4,70.4,62.6,57.2,48.8,42.8,72,48,30,29.68,29.56,8,2,14,0.00
2013-5-2,66.2,63.6,60.4,62.6,55.8,46.4,94,77,52,29.74,29.62,4,0,6,0.00
2013-5-3,62.1,48.6,36.1,60.8,46.8,33.8,95,93,87,29.62,29.50,6,1,10,0.00
2013-5-4,61.9,45.5,32.5,46.4,34.7,25.6,95,71,27,29.59,29.50,5,1,9,0.00
2013-5-5,60.8,50.1,43.3,46.4,39.6,26.9,97,72,30,29.56,29.50,7,1,10,0.00
2013-5-6,65.1,57.2,51.1,53.6,46.8,39.2,91,70,39,29.59,29.47,7,1,15,0.00
2013-5-7,80.4,63.0,48.0,59.0,45.7,35.6,96,60,22,29.65,29.56,6,1,8,0.00
2013-5-8,86.2,66.4,49.3,64.4,45.3,35.6,91,55,19,29.71,29.62,8,1,9,0.00
2013-5-9,82.0,70.0,57.6,57.2,49.1,41.0,86,52,25,29.71,29.59,11,3,16,0.00
2013-5-10,77.2,67.5,61.9,68.0,60.7,50.0,93,80,41,29.62,29.50,10,2,16,0.00
2013-5-11,76.8,65.6,56.5,62.6,48.2,32.0,96,60,22,29.68,29.53,8,2,11,0.00
2013-5-12,72.9,57.6,43.7,51.8,27.1,16.0,81,35,15,29.85,29.68,8,2,12,0.00
2013-5-13,83.7,60.1,40.5,46.4,34.9,26.5,84,46,18,29.91,29.77,8,1,10,0.00
2013-5-14,93.4,71.4,56.3,42.8,39.0,32.0,56,34,14,29.77,29.65,10,4,17,0.00
2013-5-15,85.8,72.8,60.3,44.6,39.8,32.0,54,32,19,29.77,29.59,12,4,17,0.00
2013-5-16,84.4,70.9,62.4,64.4,51.0,39.2,88,54,23,29.62,29.53,8,2,10,0.00
2013-5-17,86.7,70.4,64.6,69.8,59.5,50.0,92,71,32,29.59,29.50,8,2,10,0.00
2013-5-18,87.8,74.8,64.0,71.6,63.2,55.4,93,71,34,29.62,29.53,6,1,9,0.00
2013-5-19,92.5,78.8,69.8,69.8,58.3,44.6,91,56,24,29.62,29.50,9,4,13,0.00
2013-5-20,92.1,80.1,70.0,69.8,57.6,50.0,88,50,26,29.59,29.47,12,5,17,0.00
2013-5-21,80.6,70.7,63.3,69.8,63.7,50.0,95,79,49,29.59,29.38,8,2,13,0.00
2013-5-22,91.6,70.1,61.9,69.8,56.0,41.0,97,68,20,29.53,29.41,7,2,11,0.00
2013-5-23,87.1,71.7,60.4,68.0,51.0,37.4,93,55,20,29.74,29.53,6,1,8,0.00
2013-5-24,83.7,65.4,54.1,50.0,38.0,27.6,72,40,16,29.91,29.74,10,3,15,0.00
2013-5-25,83.5,66.8,48.9,53.6,41.0,32.0,87,45,16,29.91,29.77,5,1,8,0.00
2013-5-26,88.3,70.5,54.5,57.2,45.2,33.8,91,48,18,29.83,29.71,9,2,10,0.00
2013-5-27,90.9,74.6,62.1,59.0,49.7,39.2,71,46,18,29.74,29.62,10,3,14,0.00
2013-5-28,95.0,78.5,69.1,60.8,47.8,33.8,67,38,15,29.68,29.59,10,5,13,0.00
2013-5-29,92.1,77.9,63.9,57.2,49.8,39.2,66,40,19,29.68,29.56,9,4,13,0.00
2013-5-30,88.2,76.6,68.4,68.0,58.4,48.2,88,57,29,29.65,29.56,14,4,20,0.00
2013-5-31,93.9,78.5,70.5,68.0,62.3,53.6,87,61,27,29.62,29.47,9,4,17,0.00